Time;durP1;ratioP1;P1;durP2;ratioP2;P2;SDS_P1;SDS_P2;PMS_P1;PMS_P2;Temp;Humidity;BMP_temperature;BMP_pressure;BME280_temperature;BME280_humidity;BME280_pressure;Samples;Min_cycle;Max_cycle;Signal;HPM_P1;HPM_P2
2021/07/16 00:01:34;;;;;;;;;14.50;12.50;;;;;20.22;56.27;101718.22;5027605;28;46490;-69
2021/07/16 00:04:00;;;;;;;;;14.50;14.25;;;;;20.20;56.21;101715.63;5025491;28;45534;-69
2021/07/16 00:06:25;;;;;;;;;15.50;11.25;;;;;20.18;56.55;101716.63;5024776;28;45330;-67
2021/07/16 00:08:51;;;;;;;;;14.75;13.25;;;;;20.14;56.69;101713.22;5033317;28;45404;-69
2021/07/16 00:11:16;;;;;;;;;16.25;14.00;;;;;20.10;56.75;101720.50;5032287;28;46125;-70
2021/07/16 00:13:41;;;;;;;;;13.25;13.00;;;;;20.10;56.53;101714.31;5049920;28;45479;-70
2021/07/16 00:16:07;;;;;;;;;15.00;15.00;;;;;20.08;56.64;101713.53;5031906;28;45635;-71
2021/07/16 00:18:33;;;;;;;;;11.25;11.25;;;;;20.04;56.44;101707.47;5030739;28;45492;-70
2021/07/16 00:21:01;;;;;;;;;11.75;11.50;;;;;20.04;56.80;101710.13;5030387;28;46534;-68
2021/07/16 00:23:27;;;;;;;;;12.00;12.00;;;;;20.03;57.02;101713.72;5032252;28;45274;-67
2021/07/16 00:25:52;;;;;;;;;11.75;10.75;;;;;20.05;56.62;101716.31;5032822;28;45439;-68
2021/07/16 00:28:17;;;;;;;;;13.75;12.25;;;;;20.08;56.75;101711.72;5033334;28;45473;-68
2021/07/16 00:30:42;;;;;;;;;13.00;12.50;;;;;20.08;56.69;101711.72;5032143;28;46285;-69
2021/07/16 00:33:08;;;;;;;;;13.75;13.25;;;;;20.09;56.48;101709.91;5032079;28;45473;-68
2021/07/16 00:35:33;;;;;;;;;13.00;12.00;;;;;20.09;56.86;101699.28;5031752;28;45748;-68
2021/07/16 00:37:59;;;;;;;;;11.75;11.75;;;;;20.09;57.17;101712.56;5032260;28;45405;-67
2021/07/16 00:40:25;;;;;;;;;11.50;11.00;;;;;20.05;56.89;101706.56;5034170;28;46263;-67
2021/07/16 00:42:50;;;;;;;;;13.75;10.00;;;;;20.03;56.67;101702.25;5032238;28;45661;-67
2021/07/16 00:45:16;;;;;;;;;10.75;9.25;;;;;20.03;57.09;101704.91;5031961;28;45397;-67
2021/07/16 00:47:44;;;;;;;;;9.50;9.00;;;;;20.00;57.28;101713.88;5032322;28;45408;-67
2021/07/16 00:50:28;;;;;;;;;15.00;13.25;;;;;19.98;57.16;101707.75;5031168;28;46420;-68
2021/07/16 00:52:57;;;;;;;;;16.75;12.00;;;;;19.95;57.67;101713.22;5031213;28;45327;-68
2021/07/16 00:55:24;;;;;;;;;14.00;10.50;;;;;19.95;57.53;101715.88;5037358;28;45553;-68
2021/07/16 00:57:49;;;;;;;;;9.50;9.50;;;;;19.94;57.56;101719.44;5034193;28;45261;-68
2021/07/16 01:00:16;;;;;;;;;9.75;9.00;;;;;19.94;57.60;101714.97;5033972;28;46183;-69
2021/07/16 01:02:41;;;;;;;;;14.25;12.25;;;;;19.96;57.40;101711.41;5035786;28;45504;-68
2021/07/16 01:05:09;;;;;;;;;15.25;12.00;;;;;19.95;58.12;101726.50;5035456;28;45351;-68
2021/07/16 01:07:36;;;;;;;;;12.50;12.50;;;;;19.93;57.91;101720.38;5037921;28;45359;-68
2021/07/16 01:10:04;;;;;;;;;13.00;12.00;;;;;19.92;57.97;101722.16;5035821;28;45624;-69
2021/07/16 01:12:30;;;;;;;;;7.75;7.75;;;;;19.90;58.06;101723.16;5035700;28;45488;-68
2021/07/16 01:14:56;;;;;;;;;11.75;9.25;;;;;19.88;58.21;101717.06;5035655;28;45287;-69
2021/07/16 01:17:21;;;;;;;;;13.25;10.00;;;;;19.88;58.28;101722.38;5036038;28;45355;-69
2021/07/16 01:19:57;;;;;;;;;11.75;11.75;;;;;19.88;58.14;101720.59;5036565;28;46875;-68
2021/07/16 01:22:27;;;;;;;;;11.50;9.75;;;;;19.88;58.47;101723.25;5037592;28;45362;-69
2021/07/16 01:24:53;;;;;;;;;11.75;10.50;;;;;19.88;58.26;101720.59;5035705;28;45497;-68
2021/07/16 01:27:19;;;;;;;;;15.50;10.75;;;;;19.87;58.49;101718.84;5035491;28;45508;-69
2021/07/16 01:29:46;;;;;;;;;11.00;11.00;;;;;19.85;58.21;101720.69;5035458;28;46153;-68
2021/07/16 01:32:13;;;;;;;;;14.75;10.75;;;;;19.84;58.37;101716.31;5017138;28;45369;-69
2021/07/16 01:34:39;;;;;;;;;11.75;10.75;;;;;19.85;58.65;101718.03;5037687;28;45312;-70
2021/07/16 01:37:05;;;;;;;;;13.00;9.25;;;;;19.85;58.77;101725.16;5033793;28;45681;-70
2021/07/16 01:39:30;;;;;;;;;11.50;10.50;;;;;19.81;58.70;101721.78;5033729;28;46259;-68
2021/07/16 01:41:56;;;;;;;;;7.50;7.50;;;;;19.78;58.69;101724.53;5035482;28;45375;-69
2021/07/16 01:44:21;;;;;;;;;15.25;13.50;;;;;19.77;59.00;101725.50;5035577;28;45294;-69
2021/07/16 01:46:46;;;;;;;;;6.75;6.25;;;;;19.76;58.52;101726.44;5036820;28;45356;-69
2021/07/16 01:49:12;;;;;;;;;10.50;10.00;;;;;19.78;59.06;101727.22;5035995;28;45993;-68
2021/07/16 01:51:37;;;;;;;;;7.75;6.50;;;;;19.78;58.59;101736.97;5035140;28;45316;-68
2021/07/16 01:54:02;;;;;;;;;9.00;8.00;;;;;19.77;58.98;101736.13;5035370;28;45320;-68
2021/07/16 01:56:28;;;;;;;;;8.75;8.25;;;;;19.78;59.00;101729.88;5034985;28;45316;-68
2021/07/16 01:58:53;;;;;;;;;15.00;13.00;;;;;19.81;58.93;101726.25;5035607;28;45617;-69
2021/07/16 02:01:21;;;;;;;;;9.25;9.25;;;;;19.79;58.63;101728.94;5035609;28;45506;-69
2021/07/16 02:03:46;;;;;;;;;9.25;7.00;;;;;19.79;59.20;101725.44;5034521;28;45633;-68
2021/07/16 02:06:13;;;;;;;;;13.00;12.00;;;;;19.81;59.12;101721.78;5034290;28;45522;-68
2021/07/16 02:08:40;;;;;;;;;11.25;11.00;;;;;19.82;58.84;101723.50;5034995;28;46739;-68
2021/07/16 02:11:06;;;;;;;;;10.00;10.00;;;;;19.82;58.87;101719.97;5034928;28;45324;-68
2021/07/16 02:13:31;;;;;;;;;11.75;10.75;;;;;19.81;59.13;101724.44;5036897;28;45431;-68
2021/07/16 02:15:57;;;;;;;;;9.33;9.33;;;;;19.81;58.98;101724.44;5032693;28;45503;-68
2021/07/16 02:18:22;;;;;;;;;7.75;7.75;;;;;19.81;59.16;101719.13;5033313;28;46046;-68
2021/07/16 02:20:48;;;;;;;;;10.00;7.33;;;;;19.79;58.92;101714.81;5034765;28;45505;-69
2021/07/16 02:23:24;;;;;;;;;10.00;9.00;;;;;19.79;58.73;101714.81;5034769;28;45560;-68
2021/07/16 02:25:50;;;;;;;;;9.00;8.33;;;;;19.77;58.92;101714.88;5033326;28;45256;-68
2021/07/16 02:28:24;;;;;;;;;10.75;10.75;;;;;19.77;59.61;101714.00;5035253;28;47127;-68
2021/07/16 02:30:50;;;;;;;;;10.00;8.25;;;;;19.75;59.19;101707.88;5033971;28;46160;-68
2021/07/16 02:33:16;;;;;;;;;8.25;7.00;;;;;19.76;58.92;101710.50;5034488;28;45478;-68
2021/07/16 02:35:44;;;;;;;;;9.75;8.25;;;;;19.78;59.05;101705.09;5034500;28;45391;-68
2021/07/16 02:38:10;;;;;;;;;11.67;9.00;;;;;19.76;59.39;101709.59;5034492;28;47039;-68
2021/07/16 02:40:37;;;;;;;;;9.75;8.75;;;;;19.75;59.19;101703.44;5036379;28;45368;-68
2021/07/16 02:43:04;;;;;;;;;10.50;7.75;;;;;19.73;59.41;101711.50;5038231;28;45684;-68
2021/07/16 02:45:29;;;;;;;;;10.25;10.25;;;;;19.73;59.50;101716.81;5034234;28;45404;-68
2021/07/16 02:47:55;;;;;;;;;7.50;7.50;;;;;19.75;59.41;101713.19;5034161;28;47179;-68
2021/07/16 02:50:23;;;;;;;;;8.25;8.25;;;;;19.73;59.57;101710.59;5033967;28;45339;-68
2021/07/16 02:52:49;;;;;;;;;10.00;9.00;;;;;19.72;59.90;101712.41;5035008;28;45333;-68
2021/07/16 02:55:15;;;;;;;;;10.00;8.50;;;;;19.71;59.91;101718.66;5029863;28;46819;-68
2021/07/16 02:57:40;;;;;;;;;9.00;9.00;;;;;19.72;60.18;101712.41;5029534;28;46354;-68
2021/07/16 03:00:13;;;;;;;;;9.75;8.25;;;;;19.73;59.65;101711.50;5033465;28;45450;-68
2021/07/16 03:02:43;;;;;;;;;9.50;8.25;;;;;19.71;59.81;101717.78;5034328;28;45469;-68
2021/07/16 03:05:10;;;;;;;;;6.75;6.50;;;;;19.71;60.29;101717.78;5034258;28;45590;-68
2021/07/16 03:07:35;;;;;;;;;14.00;8.25;;;;;19.70;60.33;101716.06;5036179;28;46968;-69
2021/07/16 03:10:01;;;;;;;;;9.00;8.25;;;;;19.69;60.21;101711.69;5038201;28;45544;-69
2021/07/16 03:12:26;;;;;;;;;9.00;9.00;;;;;19.68;60.27;101712.59;5033952;28;45417;-69
2021/07/16 03:14:51;;;;;;;;;10.25;10.25;;;;;19.68;60.49;101721.44;5033235;28;45467;-68
2021/07/16 03:17:17;;;;;;;;;9.75;9.50;;;;;19.70;60.36;101721.38;5032481;28;47685;-68
2021/07/16 03:19:42;;;;;;;;;8.25;7.00;;;;;19.65;60.73;101716.22;5035741;28;45373;-68
2021/07/16 03:22:07;;;;;;;;;8.75;6.25;;;;;19.61;60.41;101714.63;5033605;28;45284;-68
2021/07/16 03:24:33;;;;;;;;;6.75;5.50;;;;;19.62;61.14;101708.38;5033478;28;45496;-68
2021/07/16 03:26:58;;;;;;;;;9.50;7.75;;;;;19.60;60.79;101720.00;5033467;28;46580;-68
2021/07/16 03:29:23;;;;;;;;;11.75;10.00;;;;;19.58;61.00;101716.56;5032949;28;45367;-68
2021/07/16 03:31:49;;;;;;;;;10.50;8.00;;;;;19.56;60.92;101715.75;5034930;28;45410;-69
2021/07/16 03:34:14;;;;;;;;;10.50;10.50;;;;;19.52;60.83;101718.53;5033018;28;45286;-68
2021/07/16 03:36:39;;;;;;;;;9.25;9.25;;;;;19.51;60.93;101718.59;5031718;28;45936;-68
2021/07/16 03:39:05;;;;;;;;;10.25;10.00;;;;;19.52;61.16;101721.19;5033066;28;45671;-68
2021/07/16 03:41:31;;;;;;;;;15.25;13.75;;;;;19.53;60.89;101730.88;5033205;28;45403;-68
2021/07/16 03:43:56;;;;;;;;;9.25;9.25;;;;;19.53;61.13;101722.06;5033178;28;45892;-68
2021/07/16 03:46:27;;;;;;;;;8.25;7.00;;;;;19.55;60.89;101728.16;5029700;28;47564;-68
2021/07/16 03:48:52;;;;;;;;;8.00;7.00;;;;;19.56;60.86;101723.72;5029402;28;45352;-68
2021/07/16 03:51:17;;;;;;;;;14.50;14.50;;;;;19.57;60.96;101726.31;5032879;28;45746;-68
2021/07/16 03:53:43;;;;;;;;;8.00;8.00;;;;;19.57;61.33;101728.97;5033224;28;45530;-68
2021/07/16 03:56:08;;;;;;;;;7.75;7.50;;;;;19.54;61.17;101726.41;5032569;28;46117;-68
2021/07/16 03:58:33;;;;;;;;;8.25;6.50;;;;;19.53;61.07;101719.41;5034983;28;47477;-68
2021/07/16 04:00:59;;;;;;;;;6.75;5.75;;;;;19.53;61.13;101735.34;5033331;28;45564;-68
2021/07/16 04:03:24;;;;;;;;;8.50;8.50;;;;;19.51;61.15;101726.56;5033469;28;45601;-69
2021/07/16 04:05:49;;;;;;;;;6.50;6.25;;;;;19.50;61.18;101731.00;5033081;28;45478;-69
2021/07/16 04:08:18;;;;;;;;;7.25;5.25;;;;;19.50;61.67;101725.72;5032848;28;45295;-68
2021/07/16 04:10:44;;;;;;;;;10.75;10.25;;;;;19.50;61.46;101722.19;5030796;28;45488;-69
2021/07/16 04:13:11;;;;;;;;;17.00;14.00;;;;;19.51;62.07;101719.44;5031088;28;45631;-69
2021/07/16 04:15:38;;;;;;;;;10.00;9.00;;;;;19.48;61.87;101724.91;5031103;28;45605;-69
2021/07/16 04:18:06;;;;;;;;;8.50;7.75;;;;;19.48;62.19;101726.69;5032492;28;45509;-69
2021/07/16 04:20:33;;;;;;;;;6.67;6.33;;;;;19.47;62.35;101730.25;5032812;28;45296;-68
2021/07/16 04:22:59;;;;;;;;;10.00;8.25;;;;;19.44;62.53;101725.09;5032539;28;45358;-68
2021/07/16 04:25:25;;;;;;;;;8.25;8.00;;;;;19.43;62.61;101726.03;5032251;28;45638;-68
2021/07/16 04:27:52;;;;;;;;;6.50;6.00;;;;;19.40;62.64;101735.00;5031163;28;45374;-67
2021/07/16 04:30:20;;;;;;;;;5.75;4.75;;;;;19.41;62.82;101735.84;5031755;28;45339;-68
2021/07/16 04:32:46;;;;;;;;;5.33;5.33;;;;;19.41;62.61;101736.72;5032215;28;47463;-68
2021/07/16 04:35:14;;;;;;;;;11.50;8.75;;;;;19.42;62.64;101737.56;5031742;28;47521;-68
2021/07/16 04:37:40;;;;;;;;;6.00;6.00;;;;;19.44;62.58;101735.72;5033923;28;45478;-68
2021/07/16 04:40:08;;;;;;;;;6.67;6.67;;;;;19.45;63.08;101733.00;5032048;28;45443;-69
2021/07/16 04:42:34;;;;;;;;;7.25;7.00;;;;;19.44;62.85;101735.72;5031545;28;45356;-68
2021/07/16 04:44:59;;;;;;;;;11.50;10.00;;;;;19.45;62.90;101745.38;5030537;28;47252;-69
2021/07/16 04:47:25;;;;;;;;;6.25;6.25;;;;;19.47;62.98;101738.22;5032191;28;45348;-69
2021/07/16 04:49:51;;;;;;;;;9.50;8.50;;;;;19.48;62.50;101746.16;5033048;28;45459;-68
2021/07/16 04:52:16;;;;;;;;;8.00;6.33;;;;;19.48;63.08;101743.50;5032780;28;45615;-67
2021/07/16 04:54:41;;;;;;;;;7.25;6.50;;;;;19.49;62.80;101744.34;5029792;28;45582;-68
2021/07/16 04:57:11;;;;;;;;;10.00;8.00;;;;;19.49;63.02;101745.22;5030765;28;45462;-68
2021/07/16 04:59:37;;;;;;;;;12.33;10.00;;;;;19.51;63.12;101742.50;5031533;28;45454;-68
2021/07/16 05:02:04;;;;;;;;;12.25;10.00;;;;;19.53;62.57;101743.31;5031199;28;45253;-68
2021/07/16 05:04:29;;;;;;;;;7.25;7.25;;;;;19.57;62.57;101752.00;5033240;28;47352;-68
2021/07/16 05:06:55;;;;;;;;;6.50;5.75;;;;;19.60;62.75;101747.44;5030624;28;45515;-68
2021/07/16 05:09:20;;;;;;;;;7.00;7.00;;;;;19.60;62.58;101749.22;5031334;28;45293;-68
2021/07/16 05:11:45;;;;;;;;;10.50;9.50;;;;;19.61;63.04;101745.63;5031194;28;45528;-69
2021/07/16 05:14:11;;;;;;;;;12.00;8.67;;;;;19.63;62.34;101749.09;5031086;28;46076;-69
2021/07/16 05:16:37;;;;;;;;;8.25;8.25;;;;;19.61;62.44;101749.13;5028706;28;45419;-69
2021/07/16 05:19:03;;;;;;;;;13.25;9.75;;;;;19.65;62.47;101747.25;5030447;28;45538;-68
2021/07/16 05:21:28;;;;;;;;;6.00;6.00;;;;;19.65;62.39;101748.09;5031162;28;45494;-68
2021/07/16 05:23:54;;;;;;;;;7.00;7.00;;;;;19.65;62.47;101756.06;5031212;28;45449;-68
2021/07/16 05:26:19;;;;;;;;;10.00;9.75;;;;;19.66;62.11;101754.25;5031293;28;45664;-69
2021/07/16 05:28:47;;;;;;;;;9.50;9.50;;;;;19.68;62.09;101752.44;5032993;28;45277;-69
2021/07/16 05:31:14;;;;;;;;;10.00;7.25;;;;;19.68;62.32;101758.63;5032042;28;45441;-69
2021/07/16 05:33:39;;;;;;;;;8.00;8.00;;;;;19.68;62.24;101752.44;5029292;28;45457;-69
2021/07/16 05:36:05;;;;;;;;;10.50;8.50;;;;;19.71;62.36;101757.63;5030771;28;45510;-69
2021/07/16 05:38:30;;;;;;;;;6.50;6.50;;;;;19.71;62.25;101761.16;5028768;28;45481;-68
2021/07/16 05:40:56;;;;;;;;;9.00;8.75;;;;;19.75;62.09;101766.34;5034084;28;45473;-69
2021/07/16 05:43:21;;;;;;;;;12.50;8.50;;;;;19.76;62.01;101758.31;5035245;28;46076;-69
2021/07/16 05:45:47;;;;;;;;;7.75;7.25;;;;;19.78;61.80;101756.44;5033547;28;45299;-69
2021/07/16 05:48:12;;;;;;;;;9.75;9.75;;;;;19.78;62.15;101763.53;5033503;28;45414;-68
2021/07/16 05:50:42;;;;;;;;;7.00;5.50;;;;;19.80;61.92;101765.19;5033547;28;45602;-69
2021/07/16 05:53:08;;;;;;;;;8.00;6.33;;;;;19.83;61.96;101770.41;5033072;28;45564;-70
2021/07/16 05:55:35;;;;;;;;;10.00;9.00;;;;;19.85;62.12;101767.66;5035533;28;45293;-69
2021/07/16 05:58:00;;;;;;;;;7.33;7.33;;;;;19.86;61.68;101772.94;5033501;28;45350;-69
2021/07/16 06:00:27;;;;;;;;;8.50;6.50;;;;;19.89;61.62;101779.91;5034117;28;45619;-69
2021/07/16 06:02:52;;;;;;;;;7.67;7.00;;;;;19.90;61.39;101785.16;5034027;28;47792;-70
2021/07/16 06:05:17;;;;;;;;;6.67;5.67;;;;;19.95;61.70;101782.31;5034159;28;45314;-69
2021/07/16 06:07:44;;;;;;;;;6.67;5.67;;;;;20.00;61.29;101784.75;5035580;28;45399;-69
2021/07/16 06:10:10;;;;;;;;;5.67;5.67;;;;;20.02;61.30;101774.91;5032554;28;45507;-69
2021/07/16 06:12:36;;;;;;;;;6.67;5.00;;;;;20.05;61.44;101785.44;5032094;28;45860;-69
2021/07/16 06:15:01;;;;;;;;;6.00;6.00;;;;;20.07;61.14;101792.41;5033195;28;45594;-69
2021/07/16 06:17:27;;;;;;;;;5.67;5.67;;;;;20.09;60.95;101787.91;5033474;28;45432;-69
2021/07/16 06:19:53;;;;;;;;;4.67;4.67;;;;;20.10;60.72;101799.38;5034537;28;45356;-69
2021/07/16 06:22:19;;;;;;;;;9.33;9.33;;;;;20.12;60.88;101800.19;5033769;28;45437;-69
2021/07/16 06:24:44;;;;;;;;;7.00;6.67;;;;;20.11;60.73;101804.63;5032711;28;45450;-68
2021/07/16 06:27:10;;;;;;;;;12.25;10.25;;;;;20.15;61.08;101806.22;5032416;28;45618;-68
2021/07/16 06:29:36;;;;;;;;;5.00;3.67;;;;;20.21;60.70;101802.41;5032786;28;45535;-68
2021/07/16 06:32:03;;;;;;;;;4.00;4.00;;;;;20.25;60.92;101804.03;5032734;28;46402;-68
2021/07/16 06:34:28;;;;;;;;;6.00;6.00;;;;;20.26;60.66;101811.09;5034412;28;45565;-68
2021/07/16 06:36:54;;;;;;;;;6.67;5.00;;;;;20.27;60.67;101803.97;5032635;28;45379;-70
2021/07/16 06:39:19;;;;;;;;;8.00;6.25;;;;;20.27;60.75;101815.47;5032937;28;45538;-68
2021/07/16 06:41:44;;;;;;;;;5.75;5.75;;;;;20.20;60.70;101815.78;5033321;28;46321;-68
2021/07/16 06:44:10;;;;;;;;;6.67;3.67;;;;;20.11;60.62;101827.69;5033033;28;45403;-68
2021/07/16 06:46:36;;;;;;;;;10.75;10.50;;;;;20.09;60.93;101822.44;5035450;28;45454;-68
2021/07/16 06:49:03;;;;;;;;;3.00;3.00;;;;;20.08;60.82;101815.38;5030935;28;45296;-68
2021/07/16 06:51:30;;;;;;;;;3.67;2.67;;;;;20.02;61.08;101820.09;5030576;28;47332;-68
2021/07/16 06:53:59;;;;;;;;;6.33;5.00;;;;;20.01;61.25;101818.38;5032129;28;45360;-68
2021/07/16 06:56:24;;;;;;;;;3.67;3.67;;;;;20.04;61.16;101821.75;5032207;28;45346;-67
2021/07/16 06:58:52;;;;;;;;;9.75;7.75;;;;;20.09;61.12;101818.91;5033669;28;45448;-68
2021/07/16 07:01:18;;;;;;;;;8.00;6.00;;;;;20.15;61.00;101830.16;5033229;28;47216;-67
2021/07/16 07:03:43;;;;;;;;;9.33;7.33;;;;;20.17;60.71;101835.41;5032334;28;45275;-68
2021/07/16 07:06:09;;;;;;;;;8.00;6.00;;;;;20.18;60.72;101834.47;5031650;28;45377;-67
2021/07/16 07:08:34;;;;;;;;;5.00;5.00;;;;;20.18;60.41;101842.44;5026204;28;45555;-67
2021/07/16 07:11:00;;;;;;;;;5.00;3.67;;;;;20.19;60.54;101841.53;5031627;28;46968;-67
2021/07/16 07:13:25;;;;;;;;;3.33;3.33;;;;;20.21;60.22;101842.28;5031923;28;45292;-67
2021/07/16 07:15:51;;;;;;;;;6.00;5.00;;;;;20.20;59.74;101842.38;5032088;28;45575;-66
2021/07/16 07:18:16;;;;;;;;;4.33;3.67;;;;;20.17;59.70;101839.88;5031937;28;45463;-67
2021/07/16 07:20:41;;;;;;;;;3.33;2.00;;;;;20.19;60.01;101843.28;5031779;28;46021;-67
2021/07/16 07:23:07;;;;;;;;;10.25;7.25;;;;;20.27;59.80;101835.88;5032277;28;45297;-67
2021/07/16 07:25:32;;;;;;;;;9.75;6.00;;;;;20.42;59.59;101834.34;5034476;28;45264;-69
2021/07/16 07:27:58;;;;;;;;;3.00;2.00;;;;;20.55;59.25;101835.53;5030314;28;45364;-70
2021/07/16 07:30:24;;;;;;;;;7.33;6.00;;;;;20.65;58.97;101830.69;5030194;28;45479;-69
2021/07/16 07:32:50;;;;;;;;;3.67;3.67;;;;;20.76;58.74;101831.94;5031563;28;45529;-67
2021/07/16 07:35:15;;;;;;;;;2.33;2.33;;;;;20.92;58.30;101837.41;5031154;28;45489;-68
2021/07/16 07:37:41;;;;;;;;;5.33;4.33;;;;;21.07;57.66;101830.50;5029478;28;45352;-68
2021/07/16 07:40:10;;;;;;;;;4.75;4.75;;;;;21.14;57.27;101823.97;5031246;28;46238;-67
2021/07/16 07:42:35;;;;;;;;;4.00;3.67;;;;;21.13;57.09;101821.38;5031707;28;45290;-67
2021/07/16 07:45:01;;;;;;;;;4.67;4.67;;;;;21.19;57.21;101831.75;5032057;28;45217;-67
2021/07/16 07:47:32;;;;;;;;;5.67;3.00;;;;;21.32;56.94;101827.53;5032051;28;45284;-67
2021/07/16 07:50:00;;;;;;;;;6.00;4.00;;;;;21.54;56.71;101831.84;5031984;28;46398;-68
2021/07/16 07:52:26;;;;;;;;;3.33;1.67;;;;;21.73;55.89;101839.81;5031996;28;45379;-68
2021/07/16 07:54:52;;;;;;;;;4.33;2.00;;;;;21.86;55.44;101840.94;5031845;28;45542;-67
2021/07/16 07:57:18;;;;;;;;;5.33;2.00;;;;;21.98;55.23;101845.66;5031962;28;45430;-67
2021/07/16 07:59:43;;;;;;;;;5.00;3.33;;;;;22.04;54.78;101847.13;5031435;28;46363;-67
2021/07/16 08:02:09;;;;;;;;;3.00;2.00;;;;;22.11;54.89;101850.34;5030878;28;45561;-67
2021/07/16 08:04:36;;;;;;;;;7.33;3.67;;;;;22.22;54.93;101854.22;5033229;28;45414;-67
2021/07/16 08:07:02;;;;;;;;;2.33;2.33;;;;;22.31;54.42;101857.34;5031659;28;45466;-67
2021/07/16 08:09:28;;;;;;;;;6.67;4.67;;;;;22.39;53.88;101861.34;5029455;28;47657;-67
2021/07/16 08:11:53;;;;;;;;;5.00;3.33;;;;;22.44;53.58;101859.31;5031119;28;45236;-68
2021/07/16 08:14:19;;;;;;;;;11.33;8.00;;;;;22.53;53.44;101862.44;5031431;28;45424;-67
2021/07/16 08:16:46;;;;;;;;;3.33;2.00;;;;;22.62;53.36;101867.28;5033156;28;45256;-68
2021/07/16 08:19:18;;;;;;;;;3.00;3.00;;;;;22.73;52.96;101880.91;5033684;28;47164;-68
2021/07/16 08:21:48;;;;;;;;;1.67;1.67;;;;;22.83;52.36;101873.28;5031441;28;45452;-69
2021/07/16 08:24:15;;;;;;;;;3.00;2.67;;;;;22.85;52.56;101877.59;5031930;28;45505;-69
2021/07/16 08:26:42;;;;;;;;;3.67;3.67;;;;;22.78;52.47;101878.88;5031574;28;45510;-70
2021/07/16 08:29:07;;;;;;;;;7.67;4.33;;;;;22.64;52.07;101879.63;5031117;28;46531;-70
2021/07/16 08:31:33;;;;;;;;;6.67;5.00;;;;;22.54;52.41;101877.50;5031546;28;45407;-68
2021/07/16 08:33:59;;;;;;;;;6.00;4.67;;;;;22.44;52.79;101879.78;5031359;28;45722;-67
2021/07/16 08:36:24;;;;;;;;;2.33;2.33;;;;;22.36;53.34;101882.00;5031533;28;45536;-68
2021/07/16 08:38:50;;;;;;;;;5.00;5.00;;;;;22.35;53.67;101882.94;5031009;28;49185;-68
2021/07/16 08:41:15;;;;;;;;;3.00;2.67;;;;;22.41;53.49;101880.81;5031584;28;45284;-67
2021/07/16 08:43:42;;;;;;;;;7.33;5.67;;;;;22.56;53.62;101880.97;5028636;28;45345;-67
2021/07/16 08:46:09;;;;;;;;;4.00;3.00;;;;;22.74;53.10;101890.69;5029961;28;45304;-67
2021/07/16 08:48:34;;;;;;;;;8.33;6.33;;;;;22.81;52.37;101888.50;5028834;28;46095;-66
2021/07/16 08:51:00;;;;;;;;;10.33;7.00;;;;;22.85;51.89;101882.06;5030570;28;45538;-65
2021/07/16 08:53:27;;;;;;;;;53.25;36.50;;;;;22.80;51.48;101893.00;5030808;28;45542;-65
2021/07/16 08:55:52;;;;;;;;;149.00;98.00;;;;;22.62;51.86;101894.84;5031907;28;45426;-65
2021/07/16 08:58:18;;;;;;;;;76.75;51.50;;;;;22.45;52.48;101901.06;5031703;28;46946;-65
2021/07/16 09:00:43;;;;;;;;;99.75;59.75;;;;;22.27;52.80;101894.00;5030536;28;45324;-65
2021/07/16 09:03:10;;;;;;;;;7.00;5.00;;;;;22.12;52.85;101900.06;5030020;28;45472;-65
2021/07/16 09:05:39;;;;;;;;;3.67;3.67;;;;;21.98;53.11;101908.78;5030282;28;45578;-65
2021/07/16 09:08:12;;;;;;;;;5.00;3.00;;;;;21.79;53.35;101909.69;5030731;28;45397;-66
2021/07/16 09:10:43;;;;;;;;;9.67;7.33;;;;;21.68;53.92;101916.47;5032316;28;45288;-65
2021/07/16 09:13:09;;;;;;;;;11.33;11.00;;;;;21.64;54.01;101910.41;5030585;28;45508;-65
2021/07/16 09:15:35;;;;;;;;;7.67;6.00;;;;;21.64;54.13;101905.06;5032471;28;45362;-66
2021/07/16 09:18:18;;;;;;;;;9.00;6.67;;;;;21.66;54.14;101913.84;5033588;28;46102;-66
2021/07/16 09:20:45;;;;;;;;;8.67;8.67;;;;;21.67;54.35;101912.09;5033882;28;45485;-66
2021/07/16 09:23:17;;;;;;;;;5.33;4.67;;;;;21.68;54.35;101916.47;5033302;28;45323;-66
2021/07/16 09:25:59;;;;;;;;;7.00;6.00;;;;;21.66;54.13;101910.34;5032171;28;45375;-67
2021/07/16 09:28:25;;;;;;;;;12.33;6.67;;;;;21.70;54.11;101911.94;5035874;28;45453;-66
2021/07/16 09:30:52;;;;;;;;;5.00;5.00;;;;;21.77;53.35;101908.03;5033114;28;45496;-66
2021/07/16 09:33:17;;;;;;;;;6.00;6.00;;;;;21.81;53.81;101912.28;5033847;28;45367;-65
2021/07/16 09:35:43;;;;;;;;;4.00;3.00;;;;;21.97;53.13;101902.56;5033591;28;45323;-65
2021/07/16 09:38:17;;;;;;;;;5.67;4.67;;;;;22.21;52.68;101902.31;5033687;28;46053;-65
2021/07/16 09:40:51;;;;;;;;;5.67;4.67;;;;;22.38;52.11;101906.78;5031972;28;45371;-68
2021/07/16 09:43:19;;;;;;;;;10.33;8.33;;;;;22.47;52.12;101911.66;5035358;28;45511;-66
2021/07/16 09:46:06;;;;;;;;;4.00;4.00;;;;;22.56;51.79;101919.19;5032977;28;45440;-65
2021/07/16 09:48:36;;;;;;;;;10.67;8.67;;;;;22.61;51.72;101918.94;5033017;28;46082;-65
2021/07/16 09:51:07;;;;;;;;;2.67;2.67;;;;;22.76;51.21;101927.94;5032565;28;45330;-66
2021/07/16 09:53:40;;;;;;;;;11.67;7.33;;;;;22.85;50.70;101919.44;5033093;28;45384;-66
2021/07/16 09:56:10;;;;;;;;;7.33;6.33;;;;;22.93;50.98;101921.72;5033182;28;49129;-67
2021/07/16 09:58:35;;;;;;;;;13.25;13.25;;;;;23.03;50.74;101926.53;5034144;28;45270;-67
2021/07/16 10:01:01;;;;;;;;;21.75;19.50;;;;;23.16;50.65;101920.50;5032069;28;45441;-67
2021/07/16 10:03:27;;;;;;;;;14.50;14.00;;;;;23.23;50.66;101912.06;5031128;28;45432;-67
2021/07/16 10:05:54;;;;;;;;;13.00;11.50;;;;;23.23;49.52;101909.41;5032018;28;45467;-67
2021/07/16 10:08:20;;;;;;;;;13.75;13.25;;;;;23.14;49.22;101917.91;5033042;28;45355;-67
2021/07/16 10:10:47;;;;;;;;;22.50;17.75;;;;;23.00;49.06;101923.13;5034401;28;45438;-67
2021/07/16 10:13:13;;;;;;;;;13.50;12.00;;;;;22.81;49.23;101921.44;5032263;28;45442;-67
2021/07/16 10:15:41;;;;;;;;;8.00;8.00;;;;;22.71;49.58;101919.31;5032454;28;45427;-67
2021/07/16 10:18:07;;;;;;;;;9.25;8.00;;;;;22.60;49.78;101926.09;5032502;28;46183;-66
2021/07/16 10:20:35;;;;;;;;;8.33;8.33;;;;;22.50;49.70;101927.53;5032826;28;45404;-68
2021/07/16 10:23:00;;;;;;;;;5.00;5.00;;;;;22.42;49.86;101927.03;5032618;28;45612;-69
2021/07/16 10:25:26;;;;;;;;;6.00;6.00;;;;;22.42;49.85;101932.38;5034413;28;45359;-69
2021/07/16 10:27:52;;;;;;;;;6.00;5.67;;;;;22.40;49.67;101932.44;5031890;28;45624;-66
2021/07/16 10:30:19;;;;;;;;;6.00;6.00;;;;;22.35;49.52;101931.81;5031601;28;45304;-66
2021/07/16 10:32:52;;;;;;;;;15.50;15.50;;;;;22.36;49.55;101936.22;5032594;28;45384;-67
2021/07/16 10:35:22;;;;;;;;;17.25;14.00;;;;;22.35;49.89;101942.47;5015615;28;45786;-65
2021/07/16 10:38:34;;;;;;;;;11.25;10.25;;;;;22.13;49.91;101940.00;5033868;28;47082;-65
2021/07/16 10:41:00;;;;;;;;;16.75;16.25;;;;;22.01;50.17;101951.28;5021428;28;45679;-67
2021/07/16 10:43:25;;;;;;;;;17.00;14.50;;;;;21.89;50.40;101955.41;5031885;28;45354;-67
2021/07/16 10:45:51;;;;;;;;;10.50;9.00;;;;;21.79;50.35;101949.66;5030911;28;45305;-66
2021/07/16 10:48:19;;;;;;;;;7.75;7.75;;;;;21.75;50.33;101956.06;5032271;28;46165;-67
2021/07/16 10:50:47;;;;;;;;;9.50;9.25;;;;;21.73;50.70;101960.59;5032160;28;45404;-67
2021/07/16 10:53:37;;;;;;;;;21.50;15.75;;;;;21.80;50.29;101950.50;5031210;28;45312;-67
2021/07/16 10:56:08;;;;;;;;;10.33;10.00;;;;;21.95;50.43;101955.13;5030536;28;45419;-67
2021/07/16 10:58:38;;;;;;;;;13.50;12.75;;;;;22.06;50.26;101959.91;5033550;28;45908;-67
2021/07/16 11:01:06;;;;;;;;;18.25;17.25;;;;;22.22;50.00;101960.06;5026169;28;45434;-65
2021/07/16 11:03:40;;;;;;;;;9.50;9.00;;;;;22.35;49.50;101961.16;5026411;28;45431;-67
2021/07/16 11:06:07;;;;;;;;;15.75;13.00;;;;;22.45;49.08;101966.88;5030243;28;45487;-67
2021/07/16 11:08:37;;;;;;;;;7.75;7.25;;;;;22.45;49.03;101965.09;5032367;28;45337;-67
2021/07/16 11:11:10;;;;;;;;;18.25;16.00;;;;;22.47;48.86;101970.34;5031668;28;45650;-67
2021/07/16 11:13:56;;;;;;;;;11.25;10.50;;;;;22.50;48.64;101964.00;5033750;28;45336;-67
2021/07/16 11:16:24;;;;;;;;;11.25;10.50;;;;;22.46;48.48;101971.31;5033659;28;45671;-67
2021/07/16 11:18:53;;;;;;;;;9.75;8.75;;;;;22.45;48.70;101975.78;5031269;28;46918;-67